La Costa Apts, Puerto Rico
Current Conditions -  °F | °C
As of 1:53 PM on Thursday 29 Jan 2015 (Local Time) from TJNR Reporting Station
Overcast Overcast  
Wind Chill: 82°   Ceiling: 2900
Heat Index: 86°   Visibility: 10mi
Dew Point: 70°   Wind: 5mph
Humidity: 67%   Direction: 90°E
Pressure: 30.01"   Gusts: NA
Location:  18.3304°N, 65.6573°W
Report Text: TJNR 291753Z AUTO 09004KT 10SM BKN029 OVC080 28/21 A3001 RMK AO2 SLP163 T02780211 10283 20256 58021 $
Loading
Personal Weather Stations






























Interactive Weather Map New forecast layout! Learn more

10-Day Weather Forecast

Advertisements
Track Severe Weather on mobile